Time;durP1;ratioP1;P1;durP2;ratioP2;P2;SDS_P1;SDS_P2;PMS_P1;PMS_P2;Temp;Humidity;BMP_temperature;BMP_pressure;BME280_temperature;BME280_humidity;BME280_pressure;Samples;Min_cycle;Max_cycle;Signal;HPM_P1;HPM_P2
2022/12/14 00:02:12;;;;;;;37.22;19.20;;;;;;;-4.69;76.15;97940.19;5011981;28;20516;-78
2022/12/14 00:04:38;;;;;;;45.92;24.05;;;;;;;-5.43;77.26;97946.03;5032166;28;20468;-78
2022/12/14 00:07:03;;;;;;;38.70;22.48;;;;;;;-6.45;81.05;97945.22;5027492;28;20061;-78
2022/12/14 00:09:29;;;;;;;48.35;23.98;;;;;;;-6.63;82.12;97941.19;5020367;28;20486;-78
2022/12/14 00:11:54;;;;;;;44.38;22.17;;;;;;;-6.18;82.23;97944.84;5012127;28;20029;-78
2022/12/14 00:14:19;;;;;;;43.10;22.55;;;;;;;-5.11;80.03;97936.44;5031081;28;20428;-78
2022/12/14 00:16:45;;;;;;;48.75;23.15;;;;;;;-5.59;80.04;97933.09;5026915;28;20581;-78
2022/12/14 00:19:10;;;;;;;42.60;21.55;;;;;;;-4.96;78.03;97916.50;5031593;28;20033;-78
2022/12/14 00:21:36;;;;;;;43.53;21.38;;;;;;;-5.31;78.56;97913.44;5027562;28;20037;-78
2022/12/14 00:24:01;;;;;;;41.58;21.02;;;;;;;-4.70;77.73;97942.97;5024013;28;20041;-78
2022/12/14 00:26:30;;;;;;;41.40;20.52;;;;;;;-4.68;77.03;97928.78;5028679;28;20064;-78
2022/12/14 00:28:56;;;;;;;39.67;20.13;;;;;;;-4.58;75.95;97918.13;5026911;28;20097;-78
2022/12/14 00:31:22;;;;;;;39.00;20.77;;;;;;;-4.58;76.43;97924.16;5028786;28;20028;-78
2022/12/14 00:33:49;;;;;;;37.88;21.63;;;;;;;-4.68;77.08;97923.59;5031181;28;20100;-78
2022/12/14 00:36:15;;;;;;;35.60;19.30;;;;;;;-4.58;76.06;97913.72;5028695;28;20071;-78
2022/12/14 00:38:40;;;;;;;44.08;21.42;;;;;;;-4.78;76.79;97890.97;5022370;28;20468;-78
2022/12/14 00:41:07;;;;;;;39.33;20.30;;;;;;;-4.65;76.91;97905.00;5044141;28;20487;-78
2022/12/14 00:43:32;;;;;;;42.00;20.75;;;;;;;-4.57;76.17;97907.56;5030528;28;20044;-78
2022/12/14 00:45:58;;;;;;;46.05;22.55;;;;;;;-4.49;76.18;97898.84;5028142;28;20029;-78
2022/12/14 00:48:24;;;;;;;45.30;22.38;;;;;;;-4.39;75.76;97899.38;5042114;28;20415;-78
2022/12/14 00:50:51;;;;;;;48.05;25.00;;;;;;;-4.44;75.99;97891.31;5027596;28;20040;-78
2022/12/14 00:53:17;;;;;;;55.63;26.45;;;;;;;-4.97;76.33;97894.03;5028107;28;20438;-78
2022/12/14 00:55:44;;;;;;;48.35;23.13;;;;;;;-6.33;80.91;97904.97;5029151;28;20037;-78
2022/12/14 00:58:12;;;;;;;55.97;27.27;;;;;;;-6.58;83.27;97906.00;5024454;28;20033;-78
2022/12/14 01:00:38;;;;;;;55.83;24.77;;;;;;;-5.96;83.08;97904.38;5027125;28;20041;-78
2022/12/14 01:03:04;;;;;;;49.53;23.80;;;;;;;-6.23;80.83;97907.38;5026719;28;20063;-78
2022/12/14 01:05:30;;;;;;;53.20;23.13;;;;;;;-5.23;80.34;97889.19;5028681;28;20026;-78
2022/12/14 01:07:55;;;;;;;47.95;23.08;;;;;;;-5.36;80.70;97894.97;5025884;28;20396;-78
2022/12/14 01:10:21;;;;;;;47.72;23.20;;;;;;;-5.42;80.30;97903.44;5011080;28;20493;-78
2022/12/14 01:12:46;;;;;;;40.13;22.55;;;;;;;-4.67;78.26;97900.94;5028414;28;20025;-78
2022/12/14 01:15:12;;;;;;;41.53;22.17;;;;;;;-4.58;76.96;97884.28;5029109;28;20039;-78
2022/12/14 01:17:38;;;;;;;40.92;20.67;;;;;;;-4.63;77.66;97889.22;5008494;28;20075;-78
2022/12/14 01:20:04;;;;;;;42.15;21.55;;;;;;;-4.72;76.85;97885.06;5029094;28;20115;-78
2022/12/14 01:22:29;;;;;;;38.90;21.70;;;;;;;-5.25;78.34;97885.16;5010995;28;20033;-78
2022/12/14 01:24:55;;;;;;;38.47;22.20;;;;;;;-4.66;77.60;97879.16;5028346;28;20032;-78
2022/12/14 01:27:20;;;;;;;40.30;22.27;;;;;;;-4.36;76.54;97882.59;5026432;28;20040;-78
2022/12/14 01:29:46;;;;;;;43.65;23.00;;;;;;;-4.59;76.73;97867.84;5045527;28;20033;-78
2022/12/14 01:32:11;;;;;;;41.47;20.10;;;;;;;-4.31;75.97;97872.47;5028499;28;20044;-78
2022/12/14 01:34:36;;;;;;;42.15;21.52;;;;;;;-4.58;76.43;97866.88;5013960;28;20064;-78
2022/12/14 01:37:02;;;;;;;37.83;21.02;;;;;;;-4.28;75.95;97874.72;5028685;28;20510;-78
2022/12/14 01:39:27;;;;;;;40.45;21.08;;;;;;;-4.38;76.33;97861.97;5029734;28;20030;-78
2022/12/14 01:41:52;;;;;;;40.50;20.52;;;;;;;-4.51;76.11;97863.56;5031252;28;20128;-78
2022/12/14 01:44:18;;;;;;;42.38;23.30;;;;;;;-4.48;76.71;97871.03;5034610;28;20071;-78
2022/12/14 01:47:03;;;;;;;41.05;20.63;;;;;;;-4.40;76.61;97857.91;5032519;28;20041;-78
2022/12/14 01:49:33;;;;;;;42.08;21.73;;;;;;;-4.68;76.99;97847.28;5033796;28;20036;-78
2022/12/14 01:52:06;;;;;;;40.22;20.05;;;;;;;-4.66;76.55;97856.56;5031612;28;20053;-78
2022/12/14 01:54:34;;;;;;;43.83;21.30;;;;;;;-4.54;76.60;97856.91;5033450;28;20036;-78
2022/12/14 01:57:00;;;;;;;37.55;19.98;;;;;;;-4.57;76.96;97850.28;5029247;28;20048;-78
2022/12/14 01:59:33;;;;;;;45.88;22.88;;;;;;;-4.65;76.65;97850.34;5049797;28;20033;-78
2022/12/14 02:02:01;;;;;;;37.97;19.77;;;;;;;-4.53;76.69;97860.31;5030040;28;20029;-78
2022/12/14 02:04:27;;;;;;;37.55;19.65;;;;;;;-4.89;77.20;97855.75;5047380;28;20052;-78
2022/12/14 02:06:53;;;;;;;41.03;21.17;;;;;;;-4.70;76.89;97850.09;5029798;28;20041;-78
2022/12/14 02:09:29;;;;;;;41.65;21.02;;;;;;;-4.63;76.94;97847.59;5031637;28;20033;-78
2022/12/14 02:12:06;;;;;;;39.83;21.70;;;;;;;-4.51;76.14;97853.13;5033700;28;20036;-78
2022/12/14 02:14:33;;;;;;;38.88;19.42;;;;;;;-4.64;76.46;97841.56;5032450;28;20056;-79
2022/12/14 02:16:59;;;;;;;32.35;19.75;;;;;;;-4.59;76.57;97836.59;5031046;28;20029;-78
2022/12/14 02:19:25;;;;;;;33.67;19.63;;;;;;;-4.61;77.13;97843.78;5031350;28;20036;-78
2022/12/14 02:22:23;;;;;;;38.85;19.10;;;;;;;-4.74;77.00;97822.00;5034741;28;20038;-78
2022/12/14 02:25:19;;;;;;;36.03;18.58;;;;;;;-4.66;76.73;97840.94;5031642;28;20075;-78
2022/12/14 02:27:47;;;;;;;36.65;19.15;;;;;;;-4.77;76.73;97833.56;5029886;28;20116;-79
2022/12/14 02:30:22;;;;;;;35.22;20.50;;;;;;;-5.14;77.11;97819.72;5032584;28;20029;-78
2022/12/14 02:33:07;;;;;;;37.67;18.98;;;;;;;-4.69;77.36;97819.63;5017047;28;20121;-78
2022/12/14 02:35:45;;;;;;;35.67;20.17;;;;;;;-5.12;77.82;97833.38;5030143;28;20040;-78
2022/12/14 02:38:24;;;;;;;35.65;17.45;;;;;;;-4.69;76.50;97828.25;5029779;28;20385;-78
2022/12/14 02:41:15;;;;;;;33.58;18.17;;;;;;;-4.98;76.81;97817.00;5030322;28;20028;-78
2022/12/14 02:44:13;;;;;;;32.00;18.58;;;;;;;-4.52;76.67;97825.50;5031282;28;20028;-78
2022/12/14 02:46:46;;;;;;;36.50;19.00;;;;;;;-4.50;75.99;97826.13;5008589;28;20045;-78
2022/12/14 02:49:29;;;;;;;33.95;18.88;;;;;;;-5.22;77.79;97827.59;5032739;28;20040;-78
2022/12/14 02:52:23;;;;;;;39.00;19.08;;;;;;;-4.52;76.71;97815.09;5029534;28;20033;-78
2022/12/14 02:54:53;;;;;;;37.08;18.70;;;;;;;-4.45;75.48;97811.56;5033930;28;20109;-78
2022/12/14 02:57:31;;;;;;;40.35;19.15;;;;;;;-4.74;76.92;97806.38;5029097;28;20024;-78
2022/12/14 03:00:00;;;;;;;51.53;22.92;;;;;;;-5.22;76.42;97807.59;5046702;28;20034;-78
2022/12/14 03:02:26;;;;;;;35.05;18.25;;;;;;;-4.95;77.80;97804.44;5032522;28;20040;-78
2022/12/14 03:04:52;;;;;;;38.75;18.95;;;;;;;-5.36;77.51;97803.16;5030870;28;20037;-78
2022/12/14 03:07:32;;;;;;;35.50;20.67;;;;;;;-6.05;77.60;97809.31;5028449;28;20030;-78
2022/12/14 03:10:27;;;;;;;34.70;18.23;;;;;;;-4.96;77.61;97799.44;5046110;28;20057;-78
2022/12/14 03:13:20;;;;;;;34.95;19.10;;;;;;;-5.02;77.77;97787.13;5003573;28;20049;-78
2022/12/14 03:15:56;;;;;;;33.88;17.77;;;;;;;-4.83;76.50;97795.25;5019960;28;20045;-78
2022/12/14 03:18:26;;;;;;;33.50;18.75;;;;;;;-5.22;75.71;97791.97;5031247;28;20033;-78
2022/12/14 03:20:54;;;;;;;39.75;19.77;;;;;;;-5.44;78.31;97790.25;5031071;28;20132;-77
2022/12/14 03:23:29;;;;;;;39.72;18.75;;;;;;;-5.00;76.49;97785.94;5033018;28;20026;-78
2022/12/14 03:26:12;;;;;;;33.35;16.67;;;;;;;-4.83;75.99;97777.03;5030240;28;20075;-78
2022/12/14 03:28:50;;;;;;;32.00;17.23;;;;;;;-5.06;76.04;97773.66;5032928;28;20083;-78
2022/12/14 03:31:38;;;;;;;41.95;17.45;;;;;;;-5.07;76.04;97773.84;5029543;28;20488;-78
2022/12/14 03:34:08;;;;;;;34.47;17.10;;;;;;;-5.03;75.72;97764.69;5024024;28;20041;-78
2022/12/14 03:36:34;;;;;;;29.90;16.60;;;;;;;-4.95;75.38;97770.63;5031135;28;20117;-78
2022/12/14 03:39:04;;;;;;;32.55;18.88;;;;;;;-5.10;75.55;97767.19;5032754;28;20113;-78
2022/12/14 03:42:13;;;;;;;37.97;17.55;;;;;;;-5.05;75.20;97746.66;5027403;28;20030;-78
2022/12/14 03:44:47;;;;;;;33.88;18.25;;;;;;;-5.12;75.92;97752.75;5001596;28;20037;-78
2022/12/14 03:47:35;;;;;;;31.23;15.35;;;;;;;-4.93;75.86;97754.81;5030985;28;20500;-78
2022/12/14 03:50:03;;;;;;;34.90;17.20;;;;;;;-5.07;74.68;97756.44;5044782;28;20052;-78
2022/12/14 03:52:39;;;;;;;35.05;18.40;;;;;;;-5.11;75.73;97749.94;5030840;28;20496;-78
2022/12/14 03:55:39;;;;;;;34.08;17.15;;;;;;;-5.27;75.50;97731.91;5026917;28;20028;-78
2022/12/14 03:58:50;;;;;;;34.22;19.10;;;;;;;-5.11;75.73;97742.16;5031685;28;20112;-78
2022/12/14 04:01:36;;;;;;;35.28;16.67;;;;;;;-5.48;76.51;97739.56;4993324;28;20030;-78
2022/12/14 04:04:16;;;;;;;33.80;17.23;;;;;;;-5.32;75.79;97737.66;5028265;28;20436;-78
2022/12/14 04:07:11;;;;;;;35.03;17.20;;;;;;;-5.48;75.62;97729.16;5040657;28;20083;-78
2022/12/14 04:10:02;;;;;;;34.37;17.73;;;;;;;-5.15;75.46;97730.50;5043220;28;20028;-78
2022/12/14 04:20:59;;;;;;;33.65;17.23;;;;;;;-5.19;75.73;97712.81;5028281;28;20087;-78
2022/12/14 04:26:19;;;;;;;31.08;16.77;;;;;;;-5.01;75.45;97701.09;5027262;28;20044;-78
2022/12/14 04:31:41;;;;;;;35.00;18.50;;;;;;;-5.06;75.25;97684.41;5028398;28;20083;-78
2022/12/14 04:34:11;;;;;;;36.88;18.08;;;;;;;-5.22;75.66;97666.38;5031601;28;20108;-78
2022/12/14 04:36:45;;;;;;;35.35;17.55;;;;;;;-5.06;75.03;97674.81;5011979;28;20033;-78
2022/12/14 04:39:22;;;;;;;33.63;17.42;;;;;;;-4.95;74.37;97678.75;5028388;28;20033;-78
2022/12/14 04:41:52;;;;;;;37.90;17.77;;;;;;;-5.08;74.67;97682.00;5029974;28;20055;-78
2022/12/14 04:44:32;;;;;;;28.42;16.42;;;;;;;-5.22;74.62;97674.97;5028747;28;20025;-78
2022/12/14 04:47:00;;;;;;;36.58;18.42;;;;;;;-5.12;74.68;97674.72;5030035;28;20541;-78
2022/12/14 04:49:34;;;;;;;31.38;16.27;;;;;;;-5.08;74.64;97663.78;5029010;28;20036;-78
2022/12/14 04:52:03;;;;;;;28.00;16.55;;;;;;;-5.68;75.40;97682.06;5030884;28;20033;-78
2022/12/14 04:54:34;;;;;;;30.48;16.77;;;;;;;-5.26;75.77;97681.50;5029936;28;20032;-78
2022/12/14 04:57:16;;;;;;;36.75;18.15;;;;;;;-6.18;76.67;97669.66;5026744;28;20148;-78
2022/12/14 04:59:42;;;;;;;41.90;20.45;;;;;;;-6.62;76.95;97671.22;5026348;28;20029;-78
2022/12/14 05:02:29;;;;;;;37.50;18.17;;;;;;;-5.57;77.02;97679.03;5030044;28;20064;-78
2022/12/14 05:05:09;;;;;;;32.30;16.73;;;;;;;-5.18;75.79;97667.63;5028132;28;20041;-78
2022/12/14 05:07:54;;;;;;;31.17;17.17;;;;;;;-5.09;74.65;97663.97;5028521;28;20033;-78
2022/12/14 05:10:34;;;;;;;33.08;16.90;;;;;;;-5.47;76.13;97664.03;5029379;28;20099;-78
2022/12/14 05:13:05;;;;;;;32.08;16.83;;;;;;;-5.31;75.01;97663.06;5030768;28;20104;-78
2022/12/14 05:15:38;;;;;;;34.38;17.77;;;;;;;-5.32;74.98;97662.25;5026635;28;20443;-78
2022/12/14 05:18:05;;;;;;;31.20;16.02;;;;;;;-5.31;74.54;97653.44;5030176;28;20037;-78
2022/12/14 05:20:31;;;;;;;35.35;17.15;;;;;;;-5.34;74.64;97660.81;5029164;28;20033;-78
2022/12/14 05:22:56;;;;;;;37.63;18.35;;;;;;;-5.51;74.44;97641.97;5031913;28;20041;-78
2022/12/14 05:25:21;;;;;;;37.08;17.63;;;;;;;-5.25;75.08;97651.13;5029971;28;20096;-78
2022/12/14 05:27:47;;;;;;;29.45;17.20;;;;;;;-5.38;75.11;97656.94;5028525;28;20477;-78
2022/12/14 05:30:12;;;;;;;91.60;29.40;;;;;;;-5.35;74.72;97653.97;5024833;28;20095;-78
2022/12/14 05:32:38;;;;;;;74.15;25.17;;;;;;;-5.28;74.67;97641.88;5028748;28;20052;-78
2022/12/14 05:35:05;;;;;;;67.82;26.90;;;;;;;-5.29;74.41;97632.50;5026543;28;20045;-78
2022/12/14 05:37:30;;;;;;;59.95;22.75;;;;;;;-5.42;74.48;97632.31;5027271;28;20033;-78
2022/12/14 05:39:56;;;;;;;72.65;24.40;;;;;;;-5.27;74.66;97635.72;5027941;28;20038;-78
2022/12/14 05:42:21;;;;;;;64.55;25.05;;;;;;;-5.12;74.30;97635.72;5028116;28;20128;-78
2022/12/14 05:44:46;;;;;;;52.35;20.30;;;;;;;-5.38;75.57;97638.75;5028647;28;20034;-78
2022/12/14 05:47:12;;;;;;;52.67;22.98;;;;;;;-5.36;74.60;97622.00;5028902;28;20060;-78
2022/12/14 05:49:38;;;;;;;51.47;21.77;;;;;;;-5.23;74.91;97631.78;5028472;28;20384;-78
2022/12/14 05:52:04;;;;;;;49.45;22.20;;;;;;;-5.36;75.42;97631.59;5029136;28;20040;-78
2022/12/14 05:54:29;;;;;;;54.75;22.35;;;;;;;-5.11;74.63;97617.31;5029568;28;20033;-78
2022/12/14 05:56:54;;;;;;;49.97;22.60;;;;;;;-5.00;74.32;97627.25;5030160;28;20057;-78
2022/12/14 05:59:20;;;;;;;49.55;21.83;;;;;;;-5.54;75.20;97629.31;5027206;28;20132;-78
2022/12/14 06:01:45;;;;;;;51.45;23.00;;;;;;;-6.65;77.14;97614.47;5012029;28;20034;-78
2022/12/14 06:04:12;;;;;;;50.95;22.33;;;;;;;-5.50;76.73;97619.38;5009401;28;20045;-78
2022/12/14 06:06:37;;;;;;;49.92;20.48;;;;;;;-5.18;75.02;97618.22;5027704;28;20040;-78
2022/12/14 06:09:06;;;;;;;47.22;21.85;;;;;;;-5.32;74.95;97606.84;5028066;28;20641;-78
2022/12/14 06:11:35;;;;;;;40.13;18.85;;;;;;;-5.10;75.12;97613.75;5030331;28;20128;-78
2022/12/14 06:14:00;;;;;;;40.10;18.80;;;;;;;-4.97;74.03;97618.31;5031822;28;20413;-78
2022/12/14 06:16:26;;;;;;;43.03;20.00;;;;;;;-5.13;74.13;97606.28;5029497;28;20032;-78
2022/12/14 06:18:54;;;;;;;40.17;18.75;;;;;;;-5.13;75.02;97608.88;5013609;28;20519;-78
2022/12/14 06:21:22;;;;;;;39.47;18.00;;;;;;;-5.07;74.87;97608.19;5027451;28;20041;-78
2022/12/14 06:23:48;;;;;;;37.78;19.75;;;;;;;-5.02;73.83;97595.44;5031974;28;20029;-78
2022/12/14 06:26:14;;;;;;;49.58;19.60;;;;;;;-5.15;75.30;97603.06;5029851;28;20036;-78
2022/12/14 06:28:40;;;;;;;39.20;18.23;;;;;;;-5.04;74.43;97605.22;5047982;28;20222;-78
2022/12/14 06:31:06;;;;;;;37.15;19.20;;;;;;;-6.20;77.73;97593.72;5032594;28;20108;-78
2022/12/14 06:33:34;;;;;;;36.85;18.90;;;;;;;-5.59;76.99;97594.47;5034512;28;20028;-78
2022/12/14 06:35:59;;;;;;;41.63;18.60;;;;;;;-5.67;77.96;97584.13;5033023;28;20040;-78
2022/12/14 06:38:25;;;;;;;36.83;19.02;;;;;;;-5.21;76.36;97572.59;5030793;28;20492;-78
2022/12/14 06:40:50;;;;;;;35.58;17.65;;;;;;;-4.89;74.69;97569.56;5031996;28;20086;-78
2022/12/14 06:43:16;;;;;;;38.22;18.08;;;;;;;-4.73;74.32;97582.38;5033779;28;20057;-78
2022/12/14 06:45:41;;;;;;;35.13;16.90;;;;;;;-4.70;73.84;97568.19;5032983;28;20395;-78
2022/12/14 06:48:07;;;;;;;31.63;17.75;;;;;;;-4.79;73.93;97570.09;5031401;28;20538;-78
2022/12/14 06:50:32;;;;;;;36.03;17.88;;;;;;;-4.61;74.39;97575.69;5032443;28;20030;-78
2022/12/14 06:52:57;;;;;;;32.35;17.75;;;;;;;-4.71;73.78;97562.19;5031041;28;20492;-79
2022/12/14 06:55:24;;;;;;;32.75;17.25;;;;;;;-4.79;74.26;97554.50;5033813;28;20026;-78
2022/12/14 06:57:54;;;;;;;29.58;17.40;;;;;;;-4.66;73.95;97562.44;5031924;28;20254;-78
2022/12/14 07:00:21;;;;;;;34.15;17.55;;;;;;;-4.87;74.88;97557.19;5015777;28;20041;-78
2022/12/14 07:02:47;;;;;;;34.15;17.20;;;;;;;-4.97;74.60;97528.06;5034379;28;20092;-78
2022/12/14 07:05:13;;;;;;;35.08;17.60;;;;;;;-4.87;74.87;97549.38;5031756;28;20385;-78
2022/12/14 07:07:39;;;;;;;35.50;18.60;;;;;;;-4.83;75.17;97548.06;5013703;28;20033;-78
2022/12/14 07:10:05;;;;;;;29.88;17.35;;;;;;;-4.85;75.05;97534.41;5031095;28;20033;-78
2022/12/14 07:12:31;;;;;;;33.53;18.40;;;;;;;-4.63;75.19;97541.22;5033908;28;20384;-78
2022/12/14 07:14:57;;;;;;;34.00;18.38;;;;;;;-4.63;74.04;97536.03;5031361;28;20247;-78
2022/12/14 07:17:23;;;;;;;31.63;17.27;;;;;;;-5.75;77.12;97540.06;5033502;28;20029;-78
2022/12/14 07:19:48;;;;;;;32.63;18.10;;;;;;;-5.75;77.86;97530.47;5031381;28;20516;-78
2022/12/14 07:22:14;;;;;;;40.85;19.13;;;;;;;-5.59;77.44;97532.09;5014441;28;20112;-78
2022/12/14 07:24:40;;;;;;;44.35;20.05;;;;;;;-6.29;78.79;97532.47;5030494;28;20030;-78
2022/12/14 07:27:06;;;;;;;37.58;18.70;;;;;;;-6.13;80.55;97516.75;5029810;28;20044;-78
2022/12/14 07:29:32;;;;;;;37.03;20.70;;;;;;;-6.19;80.25;97529.63;5015420;28;20025;-78
2022/12/14 07:31:57;;;;;;;36.65;18.63;;;;;;;-6.00;81.06;97516.16;5033482;28;20030;-78
2022/12/14 07:34:23;;;;;;;32.03;19.25;;;;;;;-5.44;79.34;97522.50;5016671;28;20070;-78
2022/12/14 07:36:50;;;;;;;33.13;17.27;;;;;;;-5.06;78.33;97523.16;5029203;28;20052;-78
2022/12/14 07:39:16;;;;;;;33.78;17.98;;;;;;;-4.73;76.53;97512.13;5031484;28;20103;-79
2022/12/14 07:41:43;;;;;;;34.63;18.73;;;;;;;-4.58;74.99;97525.06;5035216;28;20035;-79
2022/12/14 07:44:09;;;;;;;37.47;19.27;;;;;;;-4.52;74.88;97523.53;5032673;28;20091;-79
2022/12/14 07:46:35;;;;;;;33.35;18.60;;;;;;;-5.24;74.64;97531.34;5027838;28;20044;-78
2022/12/14 07:49:01;;;;;;;33.28;17.17;;;;;;;-4.74;76.68;97518.31;5033008;28;20422;-79
2022/12/14 07:51:32;;;;;;;35.65;19.63;;;;;;;-4.60;75.83;97514.03;5015445;28;20033;-79
2022/12/14 07:53:58;;;;;;;28.73;16.85;;;;;;;-4.55;74.88;97511.69;5034391;28;20053;-79
2022/12/14 07:56:26;;;;;;;28.83;16.25;;;;;;;-5.42;78.29;97515.34;5030714;28;20052;-79
2022/12/14 07:58:53;;;;;;;35.15;19.50;;;;;;;-4.83;76.15;97498.63;5030907;28;20033;-78
2022/12/14 08:01:21;;;;;;;30.98;17.75;;;;;;;-4.80;76.53;97494.81;5029913;28;20385;-78
2022/12/14 08:03:48;;;;;;;35.88;19.35;;;;;;;-4.57;75.41;97498.88;5046318;28;20542;-78
2022/12/14 08:06:15;;;;;;;39.13;20.02;;;;;;;-4.47;75.37;97500.31;5029950;28;20032;-78
2022/12/14 08:08:41;;;;;;;40.72;20.55;;;;;;;-4.81;76.92;97485.41;5032308;28;20128;-78
2022/12/14 08:11:07;;;;;;;40.42;22.00;;;;;;;-5.22;77.42;97487.75;5029113;28;20033;-78
2022/12/14 08:13:33;;;;;;;36.85;18.20;;;;;;;-5.17;78.75;97474.22;5029758;28;20022;-78
2022/12/14 08:16:07;;;;;;;43.40;20.88;;;;;;;-5.44;79.15;97502.50;5028706;28;20025;-78
2022/12/14 08:18:33;;;;;;;36.45;19.13;;;;;;;-5.06;78.82;97500.56;5027349;28;20064;-78
2022/12/14 08:20:59;;;;;;;37.40;18.65;;;;;;;-4.52;76.96;97495.69;5032748;28;20056;-78
2022/12/14 08:23:25;;;;;;;40.55;20.90;;;;;;;-5.82;80.88;97488.00;5031571;28;20029;-78
2022/12/14 08:25:54;;;;;;;41.85;20.73;;;;;;;-4.76;78.12;97485.66;5030430;28;20035;-78
2022/12/14 08:28:20;;;;;;;35.63;19.67;;;;;;;-4.51;77.38;97494.69;5030424;28;20084;-78
2022/12/14 08:30:46;;;;;;;38.70;21.42;;;;;;;-4.39;76.94;97492.41;5030316;28;20052;-78
2022/12/14 08:33:11;;;;;;;30.92;16.70;;;;;;;-4.63;77.62;97488.41;5031284;28;20389;-78
2022/12/14 08:35:38;;;;;;;36.25;18.92;;;;;;;-4.30;76.55;97486.06;5012950;28;20475;-78
2022/12/14 08:38:03;;;;;;;30.92;17.38;;;;;;;-4.19;75.68;97486.34;5015049;28;20087;-78
2022/12/14 08:40:29;;;;;;;33.63;16.88;;;;;;;-4.72;77.04;97477.28;5032206;28;20111;-78
2022/12/14 08:42:54;;;;;;;32.85;17.77;;;;;;;-4.46;77.88;97484.53;5030016;28;20500;-78
2022/12/14 08:45:20;;;;;;;30.88;17.55;;;;;;;-4.51;77.85;97488.69;5027789;28;20489;-78
2022/12/14 08:47:48;;;;;;;29.60;16.33;;;;;;;-4.89;78.49;97485.53;5027501;28;20041;-78
2022/12/14 08:50:14;;;;;;;36.10;18.42;;;;;;;-4.25;76.36;97473.28;5013222;28;20036;-78
2022/12/14 08:52:39;;;;;;;28.80;16.45;;;;;;;-4.13;75.89;97485.59;5011050;28;20025;-78
2022/12/14 08:55:05;;;;;;;33.78;17.05;;;;;;;-4.13;76.11;97490.00;5012882;28;20366;-78
2022/12/14 08:57:31;;;;;;;26.77;15.75;;;;;;;-4.14;75.68;97497.00;5020635;28;20037;-78
2022/12/14 08:59:57;;;;;;;26.45;16.13;;;;;;;-3.98;75.35;97488.13;5019022;28;20052;-78
2022/12/14 09:02:22;;;;;;;30.20;16.30;;;;;;;-4.02;75.25;97492.09;5032334;28;20592;-78
2022/12/14 09:04:48;;;;;;;29.92;15.30;;;;;;;-4.02;74.71;97471.25;5020338;28;20037;-78
2022/12/14 09:07:13;;;;;;;37.75;17.50;;;;;;;-4.00;75.45;97483.06;5015478;28;20045;-78
2022/12/14 09:09:38;;;;;;;33.88;17.30;;;;;;;-4.02;74.96;97489.50;5034586;28;20384;-78
2022/12/14 09:12:06;;;;;;;28.70;16.05;;;;;;;-3.92;75.66;97488.16;5028951;28;20118;-78
2022/12/14 09:14:33;;;;;;;29.95;15.80;;;;;;;-3.93;75.16;97483.94;5026086;28;20047;-78
2022/12/14 09:16:59;;;;;;;27.55;16.05;;;;;;;-3.89;74.82;97466.13;5029854;28;20061;-78
2022/12/14 09:19:25;;;;;;;34.17;16.25;;;;;;;-3.94;74.66;97486.72;5046395;28;20156;-78
2022/12/14 09:21:50;;;;;;;37.58;16.40;;;;;;;-4.06;75.22;97477.81;5023329;28;20120;-78
2022/12/14 09:24:18;;;;;;;32.45;15.55;;;;;;;-3.88;75.37;97470.31;5034834;28;20026;-78
2022/12/14 09:26:44;;;;;;;28.83;15.35;;;;;;;-3.85;75.24;97483.78;5027146;28;20413;-78
2022/12/14 09:29:14;;;;;;;34.60;16.38;;;;;;;-3.87;74.49;97485.78;5031606;28;20397;-78
2022/12/14 09:31:40;;;;;;;30.55;15.48;;;;;;;-3.86;75.13;97478.75;5012322;28;20052;-78
2022/12/14 09:34:06;;;;;;;29.00;16.65;;;;;;;-3.81;75.38;97492.03;5017695;28;20033;-78
2022/12/14 09:36:32;;;;;;;28.65;15.98;;;;;;;-3.90;75.21;97477.53;5011998;28;20041;-78
2022/12/14 09:38:58;;;;;;;33.45;16.33;;;;;;;-3.85;75.34;97469.97;5014966;28;20367;-78
2022/12/14 09:41:32;;;;;;;32.00;17.15;;;;;;;-3.69;74.44;97482.66;5018766;28;20028;-78
2022/12/14 09:44:23;;;;;;;29.50;15.77;;;;;;;-3.70;74.53;97472.44;5031186;28;20029;-78
2022/12/14 09:47:11;;;;;;;26.90;16.73;;;;;;;-3.95;76.37;97466.88;5029837;28;20419;-78
2022/12/14 09:49:41;;;;;;;29.38;15.48;;;;;;;-3.80;75.73;97467.59;5025596;28;20068;-78
2022/12/14 09:52:14;;;;;;;25.52;14.95;;;;;;;-3.85;74.89;97457.75;5026058;28;20029;-78
2022/12/14 09:54:43;;;;;;;28.83;14.10;;;;;;;-3.52;74.74;97467.53;5028478;28;20036;-78
2022/12/14 09:57:29;;;;;;;29.17;16.40;;;;;;;-3.51;74.09;97451.69;5029894;28;20025;-78
2022/12/14 09:59:54;;;;;;;23.30;14.15;;;;;;;-3.57;74.51;97462.06;5034367;28;20025;-78
2022/12/14 10:02:34;;;;;;;28.77;15.52;;;;;;;-3.61;74.58;97455.66;5032264;28;20083;-78
2022/12/14 10:05:17;;;;;;;27.75;15.52;;;;;;;-3.46;73.88;97457.13;5036601;28;20053;-78
2022/12/14 10:07:48;;;;;;;25.52;14.02;;;;;;;-3.45;74.79;97456.09;5032350;28;20048;-78
2022/12/14 10:10:27;;;;;;;30.15;14.18;;;;;;;-3.44;74.46;97447.31;5029553;28;20037;-78
2022/12/14 10:13:04;;;;;;;28.88;15.43;;;;;;;-3.50;74.21;97455.09;5035463;28;20490;-78
2022/12/14 10:15:48;;;;;;;30.73;14.65;;;;;;;-3.53;75.23;97445.03;5034782;28;20388;-78
2022/12/14 10:18:31;;;;;;;32.08;17.13;;;;;;;-3.37;75.01;97448.13;5030980;28;20033;-78
2022/12/14 10:21:18;;;;;;;34.83;19.15;;;;;;;-3.62;74.97;97433.97;5038721;28;20037;-78
2022/12/14 10:23:54;;;;;;;35.22;17.73;;;;;;;-3.40;74.83;97443.31;5034761;28;20029;-78
2022/12/14 10:26:25;;;;;;;32.95;19.25;;;;;;;-3.34;74.46;97431.31;5032014;28;20075;-78
2022/12/14 10:29:00;;;;;;;30.90;16.67;;;;;;;-3.24;74.43;97442.97;5028760;28;20047;-78
2022/12/14 10:31:51;;;;;;;32.78;16.80;;;;;;;-3.19;75.06;97448.38;5034817;28;20499;-78
2022/12/14 10:34:22;;;;;;;42.15;20.17;;;;;;;-3.36;75.19;97415.00;5031254;28;20393;-78
2022/12/14 10:37:06;;;;;;;36.45;17.75;;;;;;;-3.14;74.20;97439.97;5030258;28;20142;-78
2022/12/14 10:40:00;;;;;;;36.08;18.25;;;;;;;-3.16;73.95;97441.97;5045040;28;20055;-78
2022/12/14 10:42:51;;;;;;;28.98;16.00;;;;;;;-3.22;73.41;97435.75;5025101;28;20025;-78
2022/12/14 10:45:56;;;;;;;37.20;18.00;;;;;;;-3.01;74.20;97437.38;5025691;28;20029;-78
2022/12/14 10:48:54;;;;;;;31.42;16.17;;;;;;;-2.99;72.83;97437.22;5022938;28;20021;-78
2022/12/14 10:51:33;;;;;;;34.28;17.08;;;;;;;-3.40;74.35;97416.41;5030448;28;20028;-78
2022/12/14 10:54:21;;;;;;;30.85;16.35;;;;;;;-3.21;74.38;97433.94;5024975;28;20029;-79
2022/12/14 10:56:48;;;;;;;51.08;27.38;;;;;;;-3.32;74.24;97432.69;5020889;28;20034;-79
2022/12/14 10:59:13;;;;;;;44.92;21.42;;;;;;;-3.45;74.86;97432.63;5020941;28;20074;-79
2022/12/14 11:01:39;;;;;;;29.20;16.45;;;;;;;-3.63;77.13;97424.56;5018794;28;20033;-79
2022/12/14 11:04:13;;;;;;;32.40;18.83;;;;;;;-3.45;74.30;97414.38;5020013;28;20025;-79
2022/12/14 11:06:38;;;;;;;34.80;16.83;;;;;;;-3.48;74.79;97406.97;5020173;28;20025;-79
2022/12/14 11:09:20;;;;;;;26.25;15.25;;;;;;;-3.26;73.54;97402.41;5020509;28;20428;-79
2022/12/14 11:11:45;;;;;;;30.42;16.10;;;;;;;-3.11;74.01;97406.47;5023654;28;20152;-79
2022/12/14 11:14:16;;;;;;;27.00;15.90;;;;;;;-3.48;76.07;97400.94;5031310;28;20033;-79
2022/12/14 11:16:41;;;;;;;30.88;16.25;;;;;;;-3.50;75.22;97403.75;5035495;28;20068;-79
2022/12/14 11:19:26;;;;;;;31.60;17.50;;;;;;;-3.35;74.25;97409.63;5021350;28;20465;-79
2022/12/14 11:22:13;;;;;;;34.47;17.27;;;;;;;-3.88;78.00;97403.38;5022515;28;20048;-78
2022/12/14 11:24:44;;;;;;;33.72;18.25;;;;;;;-3.72;79.03;97412.69;5029117;28;20034;-78
2022/12/14 11:27:10;;;;;;;30.83;18.67;;;;;;;-3.96;81.35;97410.56;5026146;28;20041;-78
2022/12/14 11:29:38;;;;;;;32.95;18.73;;;;;;;-4.54;79.13;97401.34;5024536;28;20047;-78
2022/12/14 11:32:05;;;;;;;39.72;18.98;;;;;;;-4.22;82.01;97386.97;5043185;28;20116;-78
2022/12/14 11:34:37;;;;;;;32.35;18.42;;;;;;;-3.32;76.96;97388.34;5031964;28;20033;-78
2022/12/14 11:37:25;;;;;;;36.30;17.20;;;;;;;-3.49;76.77;97394.09;5034466;28;20037;-78
2022/12/14 11:39:55;;;;;;;39.70;17.63;;;;;;;-3.40;78.57;97401.56;5046708;28;20091;-78
2022/12/14 11:42:20;;;;;;;29.77;17.45;;;;;;;-3.19;76.80;97398.81;5037596;28;20064;-78
2022/12/14 11:44:48;;;;;;;32.28;16.83;;;;;;;-2.99;75.47;97400.69;5032667;28;20029;-78
2022/12/14 11:47:22;;;;;;;26.13;16.70;;;;;;;-2.84;75.90;97391.63;5023040;28;20041;-78
2022/12/14 11:49:49;;;;;;;29.65;16.50;;;;;;;-2.65;75.19;97384.84;5031475;28;20104;-78